RJOI/IWA METAR and TAF weather

Enter ICAO airport designator
Station Type Date Time Source
RJOI METAR 2020/01/20 12:55 UTC NOAA

RJOI 201255Z 30003KT 9999 FEW030 SCT050 07/M01 A3017 RMK SLP214 T00671006


Station Type Date Time Source
RJOI Decoded METAR 2020/01/20 12:55 UTC NOAA

MCAS IWAKUNI,JAPAN, JA, Japan (RJOI) 34-09N 132-14E 5M
Jan 20, 2020 - 07:55 AM EST / 2020.01.20 1255 UTC
Wind: from the WNW (300 degrees) at 3 MPH (3 KT):0
Visibility: greater than 7 mile(s):0
Sky conditions: partly cloudy
Temperature: 44.1 F (6.7 C)
Dew Point: 30.9 F (-0.6 C)
Relative Humidity: 59%
Pressure (altimeter): 30.17 in. Hg (1021 hPa)
ob: RJOI 201255Z 30003KT 9999 FEW030 SCT050 07/M01 A3017 RMK SLP214 T00671006
cycle: 13

Station Type Date Time Source
RJOI TAF 2020/01/20 21:12 UTC NOAA

TAF RJOI 1921/2021 26006KT 9999 FEW025 BKN050 QNH3004INS
FM200200 27008G15KT 9999 FEW025 SCT050 QNH3000INS
TEMPO 2003/2009 27012G22KT BKN035
FM201000 25008KT 9999 FEW015 SCT040 QNH3009INS
FM201700 28006KT 9999 BKN050 QNH3017INS T12/2005Z T04/2021Z

Example: see airport list